Tiempo atmosférico en la estación meteorológica de Cabo de Gata, Almería (42 m.)

Fecha
DESCASC
Temp. máxima en grados centígrados (hora)
DESCASC
Temp. mínima en grados centígrados (hora)
DESCASC
Temp. media en grados centígrados
DESCASC
Racha de viento máxima en m/sg (hora)
DESCASC
Velocidad máxima media en intervalos de 10 minutos(hora)
DESCASC
Precipitaciones diarias en mm
DESCASC
Precipitaciones de 00:00 a 06:00 en mm
DESCASC
Precipitaciones de 06:00 a 12:00 en mm
DESCASC
Precipitaciones de 12:00 a 18:00 en mm
DESCASC
Precipitaciones de 18:00 a 24:00 en mm
DESCASC
17-09-2017 26.7 (14:40) 19.5 (04:00) 23.1 7.22 (23:00) 5 (23:00) 0 0 0 0 0
16-09-2017 24.5 (12:20) 21 (23:59) 22.8 15 (01:10) 10.28 (12:40) 0 0 0 0 0
15-09-2017 26.6 (13:40) 22 (05:20) 24.3 20.56 (19:50) 15 (20:10) 0 0 0 0 0
14-09-2017 27.4 (13:10) 22.1 (00:00) 24.8 10 (22:40) 6.39 (18:30) 0 0 0 0 0
13-09-2017 29.1 (12:30) 23.5 (00:00) 26.3 15.83 (13:40) 11.39 (17:30) 0 0 0 0 0
12-09-2017 28.7 (14:40) 21.8 (00:00) 25.3 16.39 (23:59) 11.39 (23:50) 0 0 0 0 0
11-09-2017 27.9 (14:20) 20.5 (00:00) 24.2 10.83 (23:50) 8.06 (23:50) 0 0 0 0 0
10-09-2017 27.1 (10:40) 21.4 (00:00) 24.3 11.67 (00:30) 7.22 (11:40) 0 0 0 0 0
09-09-2017 26.1 (11:20) 23.4 (00:00) 24.8 17.78 (17:30) 11.67 (17:30) 0 0 0 0 0
08-09-2017 28.2 (15:20) 23.6 (00:00) 25.9 6.67 (11:30) 5.56 (12:00) 0 0 0 0 0
07-09-2017 27.3 (13:10) 23.5 (00:00) 25.4 12.5 (12:10) 8.33 (10:20) 0 0 0 0 0
06-09-2017 28.2 (10:40) 24.1 (00:00) 26.2 15.83 (14:30) 11.39 (14:40) 0 0 0 0 0
05-09-2017 28.4 (12:10) 24.5 (00:00) 26.4 18.33 (01:10) 14.44 (01:10) 0 0 0 0 0
04-09-2017 29.4 (15:50) 23.8 (00:00) 26.6 17.22 (23:59) 11.39 (23:59) 0 0 0 0 0
03-09-2017 27.1 (16:40) 23.1 (00:00) 25.1 10.28 (12:20) 8.61 (12:10) 0 0 0 0 0
02-09-2017 27 (13:40) 24.1 (00:00) 25.6 16.67 (13:50) 10.28 (14:50) 0 0 0 0 0
01-09-2017 29.2 (13:50) 24.1 (00:00) 26.7 16.11 (16:40) 9.72 (17:50) 0 0 0 0 0
31-08-2017 27.7 (18:10) 22.1 (00:00) 24.9 15 (16:40) 10.28 (20:50) 0 0 0 0 0
30-08-2017 23.1 (23:40) 18.7 (00:00) 20.9 13.33 (08:40) 8.89 (18:20) 31 8.6 15.6 6.8 0
29-08-2017 26.3 (15:30) 18.3 (00:00) 22.3 14.17 (03:10) 9.72 (03:20) 17.4 0 2.6 0.2 14.6
28-08-2017 29 (15:40) 24.8 (00:00) 26.9 12.22 (13:00) 7.5 (12:40) 0.2 0 0.2 0 0
27-08-2017 30.4 (16:50) 25.6 (00:00) 28 20.28 (20:40) 14.44 (21:20) 0 0 0 0 0
26-08-2017 30.3 (19:10) 24.8 (00:00) 27.5 20.28 (20:40) 14.17 (20:30) 0 0 0 0 0
25-08-2017 27.7 (16:40) 24.4 (00:00) 26.1 15.28 (07:20) 10.83 (08:20) 0 0 0 0 0
24-08-2017 26.9 (15:00) 24.1 (00:00) 25.5 13.89 (12:40) 10.56 (13:00) 0 0 0 0 0
23-08-2017 27 (18:40) 24 (00:00) 25.5 14.72 (15:00) 11.11 (14:10) 0 0 0 0 0
22-08-2017 29.6 (11:40) 24.7 (00:00) 27.2 13.61 (15:20) 10.83 (15:50) 0 0 0 0 0

Gráficas

Temp. máximas Temp. mínimas Temp. medias Precipitaciones Rachas de viento máximas Velocidades máximas media en intervalos de 10 minutos

Datos horarios

Fecha y hora oficial Temperatura (ºC) Velocidad del viento (km/h) Dirección del viento Racha (km/h) Dirección de racha Precipitación (mm) Presión (hPa) Tendencia (hPa) Humedad (%)
2017-09-20 23:00:00 24 7 Este 28 Nordeste 0 -- -- 51
2017-09-20 22:00:00 24.1 20 Nordeste 35 Nordeste 0 -- -- 47
2017-09-20 21:00:00 24.6 19 Nordeste 29 Este 0 -- -- 37
2017-09-20 20:00:00 23.8 14 Este 29 Este 0 -- -- 61
2017-09-20 19:00:00 24.2 16 Este 33 Este 0 -- -- 64
2017-09-20 18:00:00 23.1 28 Este 37 Este 0 -- -- 80
2017-09-20 17:00:00 23.2 31 Este 37 Este 0 -- -- 79
2017-09-20 16:00:00 23.9 28 Este 37 Este 0 -- -- 77
2017-09-20 15:00:00 23.8 32 Este 37 Este 0 -- -- 76
2017-09-20 14:00:00 24.2 26 Este 33 Este 0 -- -- 75
2017-09-20 13:00:00 24.3 26 Este 40 Este 0 -- -- 75
2017-09-20 12:00:00 24 28 Este 34 Este 0 -- -- 74
2017-09-20 11:00:00 23.8 24 Este 32 Este 0 -- -- 75
2017-09-20 10:00:00 23.7 14 Este 23 Este 0 -- -- 73
2017-09-20 09:00:00 22.8 13 Nordeste 22 Nordeste 0 -- -- 65
2017-09-20 08:00:00 21.8 10 Este 16 Este 0 -- -- 60
2017-09-20 07:00:00 22 7 Norte 15 Norte 0 -- -- 58
2017-09-20 06:00:00 21.5 7 Norte 10 Norte 0 -- -- 61
2017-09-20 05:00:00 21.6 3 Este 14 Noroeste 0 -- -- 60
2017-09-20 04:00:00 21.4 8 Norte 13 Norte 0 -- -- 60
2017-09-20 03:00:00 21.6 8 Noroeste 14 Noroeste 0 -- -- 60
2017-09-20 02:00:00 21.8 9 Noroeste 17 Norte 0 -- -- 65
2017-09-20 01:00:00 22 8 Oeste 15 Noroeste 0 -- -- 64
2017-09-20 00:00:00 21.3 8 Noroeste 12 Noroeste 0 -- -- 61
2017-09-19 23:00:00 21.5 5 Noroeste 9 Norte 0 -- -- 68
2017-09-19 22:00:00 22.5 3 Este 14 Norte 0 -- -- 74
2017-09-19 21:00:00 23 9 Noroeste 14 Oeste 0 -- -- 75
2017-09-19 20:00:00 24.1 5 Oeste 9 Oeste 0 -- -- 74
2017-09-19 19:00:00 24.5 5 Oeste 12 Oeste 0 -- -- 74
2017-09-19 18:00:00 25 4 Oeste 10 Sudoeste 0 -- -- 74
2017-09-19 17:00:00 25.5 4 Sur 12 Sudeste 0 -- -- 73
2017-09-19 16:00:00 25.6 8 Sudeste 18 Este 0 -- -- 72
2017-09-19 15:00:00 26 10 Este 34 Este 0 -- -- 69
2017-09-19 14:00:00 25.1 27 Este 40 Este 0 -- -- 68
2017-09-19 13:00:00 25.2 30 Este 40 Este 0 -- -- 64
2017-09-19 12:00:00 26.7 8 Oeste 15 Oeste 0 -- -- 61
2017-09-19 11:00:00 25.3 5 Oeste 12 Oeste 0 -- -- 66
2017-09-19 10:00:00 23.9 4 Noroeste 19 Nordeste 0 -- -- 69
2017-09-19 09:00:00 23 4 Este 10 Este 0 -- -- 73
2017-09-19 08:00:00 21.1 3 Sudoeste 8 Norte 0 -- -- 72
2017-09-19 07:00:00 20.8 0 Calma 17 Noroeste 0 -- -- 75
2017-09-19 06:00:00 20.8 10 Noroeste 18 Noroeste 0 -- -- 79
2017-09-19 05:00:00 22.1 2 Oeste 17 Este 0 -- -- 77
2017-09-19 04:00:00 22.1 14 Este 22 Este 0 -- -- 74
2017-09-19 03:00:00 21.7 12 Este 20 Este 0 -- -- 78
2017-09-19 02:00:00 21.5 0 Calma 7 Sudeste 0 -- -- 77
2017-09-19 01:00:00 21.6 4 Este 10 Sudeste 0 -- -- 76
2017-09-19 00:00:00 22 3 Sudeste 8 Sudoeste 0 -- -- 75
2017-09-18 23:00:00 21.7 8 Oeste 18 Noroeste 0 -- -- 74
2017-09-18 22:00:00 22 11 Oeste 26 Oeste 0 -- -- 73
2017-09-18 21:00:00 22.2 18 Oeste 31 Sudoeste 0 -- -- 70
2017-09-18 20:00:00 22.6 18 Oeste 28 Oeste 0 -- -- 69
2017-09-18 19:00:00 23 11 Oeste 26 Sudoeste 0 -- -- 68
2017-09-18 18:00:00 23.1 10 Oeste 26 Sudoeste 0 -- -- 66
2017-09-18 17:00:00 23.9 14 Oeste 26 Sudoeste 0 -- -- 63
2017-09-18 16:00:00 24.4 13 Oeste 27 Sudoeste 0 -- -- 61
2017-09-18 15:00:00 24.8 15 Oeste 29 Oeste 0 -- -- 60
2017-09-18 14:00:00 25.1 15 Oeste 28 Sudoeste 0 -- -- 62
2017-09-18 13:00:00 24.9 11 Oeste 22 Oeste 0 -- -- 66
2017-09-18 12:00:00 24.7 10 Oeste 23 Oeste 0 -- -- 70
2017-09-18 11:00:00 23.8 13 Oeste 22 Oeste 0 -- -- 75
2017-09-18 10:00:00 22.7 11 Oeste 18 Oeste 0 -- -- 79
2017-09-18 09:00:00 21.3 8 Oeste 16 Oeste 0 -- -- 82
2017-09-18 08:00:00 20.4 4 Noroeste 21 Sudoeste 0 -- -- 82
2017-09-18 07:00:00 20.5 15 Oeste 33 Noroeste 0 -- -- 81
2017-09-18 06:00:00 20.5 24 Oeste 33 Noroeste 0 -- -- 79
2017-09-18 05:00:00 20.6 24 Oeste 35 Oeste 0 -- -- 76
2017-09-18 04:00:00 20.5 23 Oeste 30 Oeste 0 -- -- 74
2017-09-18 03:00:00 20.5 12 Oeste 23 Oeste 0 -- -- 74
2017-09-18 02:00:00 20.9 15 Oeste 26 Oeste 0 -- -- 75
2017-09-18 01:00:00 21 17 Oeste 25 Oeste 0 -- -- 74
2017-09-18 00:00:00 21.2 18 Oeste 26 Oeste 0 -- -- 72
2017-09-17 23:00:00 21.2 18 Oeste 26 Oeste 0 -- -- 70
2017-09-17 22:00:00 21.3 10 Oeste 23 Sudoeste 0 -- -- 74
2017-09-17 21:00:00 21.9 3 Oeste 13 Oeste 0 -- -- 74
2017-09-17 20:00:00 22.9 8 Oeste 16 Oeste 0 -- -- 74
2017-09-17 19:00:00 23.5 7 Oeste 16 Oeste 0 -- -- 71
2017-09-17 18:00:00 24 5 Sudoeste 13 Oeste 0 -- -- 64
2017-09-17 17:00:00 24.3 6 Sudeste 13 Sudeste 0 -- -- 63
2017-09-17 16:00:00 26.4 5 Sudeste 14 Este 0 -- -- 59
2017-09-17 15:00:00 26.4 8 Este 17 Este 0 -- -- 61
2017-09-17 14:00:00 26.6 6 Sudeste 18 Nordeste 0 -- -- 65
2017-09-17 13:00:00 25.3 12 Este 24 Este 0 -- -- 68
2017-09-17 12:00:00 25.5 10 Este 18 Este 0 -- -- 69
2017-09-17 11:00:00 24.6 6 Oeste 19 Noroeste 0 -- -- 71
2017-09-17 10:00:00 23.3 6 Oeste 14 Oeste 0 -- -- 74
2017-09-17 09:00:00 21.1 7 Noroeste 16 Norte 0 -- -- 75
2017-09-17 08:00:00 19.9 12 Norte 15 Norte 0 -- -- 80
2017-09-17 07:00:00 19.9 7 Norte 14 Noroeste 0 -- -- 83
2017-09-17 06:00:00 19.8 6 Noroeste 10 Noroeste 0 -- -- 82
2017-09-17 05:00:00 19.8 4 Noroeste 9 Noroeste 0 -- -- 82
2017-09-17 04:00:00 19.5 8 Norte 12 Norte 0 -- -- 81
2017-09-17 03:00:00 19.9 3 Oeste 8 Norte 0 -- -- 78
2017-09-17 02:00:00 19.9 0 Calma 8 Norte 0 -- -- 77
2017-09-17 01:00:00 20 6 Norte 10 Norte 0 -- -- 76
2017-09-17 00:00:00 21 0 Calma 7 Sudeste 0 -- -- 75
2017-09-16 23:00:00 21.3 0 Calma 8 Este 0 -- -- 74
2017-09-16 22:00:00 21.5 2 Sudoeste 21 Oeste 0 -- -- 74
2017-09-16 21:00:00 22 13 Oeste 25 Oeste 0 -- -- 73
2017-09-16 20:00:00 22.5 15 Oeste 23 Oeste 0 -- -- 72
2017-09-16 19:00:00 22.6 12 Oeste 18 Oeste 0 -- -- 71
2017-09-16 18:00:00 23 8 Oeste 18 Oeste 0 -- -- 71
2017-09-16 17:00:00 24 9 Oeste 21 Oeste 0 -- -- 69
2017-09-16 16:00:00 24.4 5 Sudoeste 14 Sudoeste 0 -- -- 72
2017-09-16 15:00:00 23.5 8 Sudeste 41 Este 0 -- -- 74
2017-09-16 14:00:00 23.9 32 Este 48 Este 0 -- -- 70
2017-09-16 13:00:00 23.9 31 Este 49 Este 0 -- -- 69
2017-09-16 12:00:00 24.3 24 Este 50 Nordeste 0 -- -- 67
2017-09-16 11:00:00 23.3 34 Nordeste 47 Este 0 -- -- 71
2017-09-16 10:00:00 22.6 34 Nordeste 45 Nordeste 0 -- -- 76
2017-09-16 09:00:00 21.6 22 Nordeste 41 Nordeste 0 -- -- 80
2017-09-16 08:00:00 21.4 13 Norte 36 Nordeste 0 -- -- 82
2017-09-16 07:00:00 21.6 24 Nordeste 39 Nordeste 0 -- -- 82
2017-09-16 06:00:00 21.7 16 Norte 40 Nordeste 0 -- -- 82
2017-09-16 05:00:00 22.4 23 Nordeste 41 Nordeste 0 -- -- 82
2017-09-16 04:00:00 22.9 18 Nordeste 40 Nordeste 0 -- -- 82
2017-09-16 03:00:00 23.1 29 Este 46 Este 0 -- -- 81
2017-09-16 02:00:00 23.3 26 Este 54 Nordeste 0 -- -- 79
2017-09-16 01:00:00 23.7 25 Este 49 Nordeste 0 -- -- 78
2017-09-16 00:00:00 23.2 10 Este 31 Este 0 -- -- 72
2017-09-15 23:00:00 22.4 8 Este 31 Oeste 0 -- -- 69
2017-09-15 22:00:00 22.4 25 Oeste 58 Oeste 0 -- -- 67
2017-09-15 21:00:00 22.5 34 Oeste 70 Oeste 0 -- -- 65
2017-09-15 20:00:00 23.1 50 Oeste 74 Oeste 0 -- -- 63
2017-09-15 19:00:00 23.4 38 Oeste 65 Sur 0 -- -- 64
2017-09-15 18:00:00 23.6 28 Oeste 57 Oeste 0 -- -- 66
2017-09-15 17:00:00 24.7 31 Oeste 48 Sudoeste 0 -- -- 64
2017-09-15 16:00:00 25.5 24 Oeste 42 Sudoeste 0 -- -- 66
2017-09-15 15:00:00 26.1 12 Oeste 24 Sudoeste 0 -- -- 70
2017-09-15 14:00:00 25.1 10 Sur 19 Sur 0 -- -- 73
2017-09-15 13:00:00 25.7 6 Sur 11 Sur 0 -- -- 73
2017-09-15 12:00:00 25.5 6 Sur 12 Sudeste 0 -- -- 77
2017-09-15 11:00:00 25.6 2 Sudoeste 6 Sur 0 -- -- 80
2017-09-15 10:00:00 24.1 0 Calma 8 Sudeste 0 -- -- 84
2017-09-15 09:00:00 22.1 0 Calma 5 Sudoeste 0 -- -- 86
2017-09-15 08:00:00 22 2 Sudeste 12 Oeste 0 -- -- 86
2017-09-15 07:00:00 22.1 8 Oeste 19 Sudoeste 0 -- -- 86
2017-09-15 06:00:00 22.1 8 Oeste 15 Oeste 0 -- -- 86
2017-09-15 05:00:00 22.3 7 Oeste 27 Oeste 0 -- -- 87
2017-09-15 04:00:00 22.5 19 Oeste 26 Oeste 0 -- -- 86
2017-09-15 03:00:00 22.7 16 Oeste 19 Oeste 0 -- -- 86
2017-09-15 02:00:00 22.8 13 Oeste 25 Noroeste 0 -- -- 85
2017-09-15 01:00:00 23.1 15 Oeste 30 Noroeste 0 -- -- 84
2017-09-15 00:00:00 23.2 17 Oeste 29 Noroeste 0 -- -- 83
2017-09-14 23:00:00 23.4 18 Oeste 36 Noroeste 0 -- -- 83
2017-09-14 22:00:00 23.2 13 Oeste 31 Noroeste 0 -- -- 82
2017-09-14 21:00:00 23.2 15 Oeste 26 Noroeste 0 -- -- 81
2017-09-14 20:00:00 23.6 16 Oeste 26 Oeste 0 -- -- 80
2017-09-14 19:00:00 24 21 Oeste 31 Oeste 0 -- -- 78
2017-09-14 18:00:00 24.2 16 Oeste 32 Oeste 0 -- -- 75
2017-09-14 17:00:00 25.4 17 Oeste 31 Oeste 0 -- -- 72
2017-09-14 16:00:00 26.5 18 Oeste 26 Oeste 0 -- -- 70
2017-09-14 15:00:00 26.1 16 Oeste 28 Oeste 0 -- -- 70
2017-09-14 14:00:00 26.8 13 Oeste 24 Sudoeste 0 -- -- 68
2017-09-14 13:00:00 27.3 7 Oeste 19 Sudoeste 0 -- -- 69
2017-09-14 12:00:00 26.5 13 Oeste 24 Oeste 0 -- -- 71
2017-09-14 11:00:00 26.3 13 Oeste 31 Noroeste 0 -- -- 69
2017-09-14 10:00:00 25.2 14 Oeste 31 Oeste 0 -- -- 68
2017-09-14 09:00:00 23.8 22 Noroeste 33 Noroeste 0 -- -- 64
2017-09-14 08:00:00 23.1 12 Oeste 24 Noroeste 0 -- -- 64
2017-09-14 07:00:00 22.5 9 Oeste 15 Noroeste 0 -- -- 65
2017-09-14 06:00:00 22.6 8 Oeste 15 Noroeste 0 -- -- 59
2017-09-14 05:00:00 23 10 Noroeste 17 Norte 0 -- -- 56
2017-09-14 04:00:00 23.3 13 Noroeste 21 Norte 0 -- -- 57
2017-09-14 03:00:00 23.1 6 Noroeste 12 Noroeste 0 -- -- 58
2017-09-14 02:00:00 24.3 4 Noroeste 12 Norte 0 -- -- 51
2017-09-14 01:00:00 24.8 9 Norte 12 Norte 0 -- -- 53
2017-09-14 00:00:00 25.4 6 Norte 10 Norte 0 -- -- 52
2017-09-13 23:00:00 25.9 3 Noroeste 25 Nordeste 0 -- -- 49
2017-09-13 22:00:00 26.6 10 Norte 37 Este 0 -- -- 45
2017-09-13 21:00:00 26.5 21 Nordeste 42 Este 0 -- -- 46
2017-09-13 20:00:00 26.9 30 Nordeste 53 Este 0 -- -- 45
2017-09-13 19:00:00 27 40 Nordeste 57 Nordeste 0 -- -- 45
2017-09-13 18:00:00 27.2 37 Nordeste 57 Este 0 -- -- 50
2017-09-13 17:00:00 27.8 39 Nordeste 57 Nordeste 0 -- -- 47
2017-09-13 16:00:00 28.6 31 Este 55 Nordeste 0 -- -- 43
2017-09-13 15:00:00 28.8 38 Nordeste 54 Nordeste 0 -- -- 39
2017-09-13 14:00:00 28.9 33 Nordeste 57 Este 0 -- -- 40
2017-09-13 13:00:00 28.8 26 Este 44 Nordeste 0 -- -- 41
2017-09-13 12:00:00 28.4 24 Este 38 Este 0 -- -- 44
2017-09-13 11:00:00 27.9 20 Nordeste 37 Nordeste 0 -- -- 42
2017-09-13 10:00:00 26.7 14 Nordeste 36 Nordeste 0 -- -- 43
2017-09-13 09:00:00 25.6 15 Nordeste 33 Norte 0 -- -- 44
2017-09-13 08:00:00 24.3 12 Norte 24 Nordeste 0 -- -- 49
2017-09-13 07:00:00 23.9 7 Norte 20 Norte 0 -- -- 51
2017-09-13 06:00:00 23.7 5 Noroeste 19 Norte 0 -- -- 52
2017-09-13 05:00:00 23.7 5 Norte 21 Nordeste 0 -- -- 56
2017-09-13 04:00:00 23.7 8 Nordeste 26 Este 0 -- -- 64
2017-09-13 03:00:00 23.9 13 Nordeste 46 Nordeste 0 -- -- 68
2017-09-13 02:00:00 24 31 Nordeste 55 Nordeste 0 -- -- 71
2017-09-13 01:00:00 24.1 37 Nordeste 56 Nordeste 0 -- -- 75
2017-09-13 00:00:00 24.1 40 Nordeste 59 Nordeste 0 -- -- 74
2017-09-12 23:00:00 24.3 37 Nordeste 57 Nordeste 0 -- -- 75
2017-09-12 22:00:00 24.5 34 Nordeste 48 Nordeste 0 -- -- 76
2017-09-12 21:00:00 24.7 31 Nordeste 46 Este 0 -- -- 75
2017-09-12 20:00:00 25.2 29 Este 44 Nordeste 0 -- -- 74
2017-09-12 19:00:00 25.9 27 Este 45 Nordeste 0 -- -- 72
2017-09-12 18:00:00 27.6 21 Este 39 Este 0 -- -- 65
2017-09-12 17:00:00 26.9 4 Oeste 22 Oeste 0 -- -- 52
2017-09-12 16:00:00 27.7 17 Oeste 27 Noroeste 0 -- -- 54
2017-09-12 15:00:00 28.4 15 Oeste 22 Noroeste 0 -- -- 48
2017-09-12 14:00:00 28.1 7 Oeste 13 Oeste 0 -- -- 58
2017-09-12 13:00:00 28.3 4 Oeste 10 Oeste 0 -- -- 62
2017-09-12 12:00:00 28.5 5 Sudoeste 17 Oeste 0 -- -- 57
2017-09-12 11:00:00 28.4 10 Sudoeste 26 Noroeste 0 -- -- 54
2017-09-12 10:00:00 27.2 19 Oeste 35 Noroeste 0 -- -- 34
2017-09-12 09:00:00 25.3 24 Noroeste 39 Oeste 0 -- -- 41
2017-09-12 08:00:00 22.9 20 Oeste 37 Noroeste 0 -- -- 59
2017-09-12 07:00:00 22.1 20 Oeste 34 Noroeste 0 -- -- 76
2017-09-12 06:00:00 21.9 22 Noroeste 31 Oeste 0 -- -- 78
2017-09-12 05:00:00 22.4 22 Oeste 31 Oeste 0 -- -- 76
2017-09-12 04:00:00 22.6 19 Oeste 32 Noroeste 0 -- -- 74
2017-09-12 03:00:00 22.9 16 Oeste 29 Oeste 0 -- -- 73
2017-09-12 02:00:00 23 14 Oeste 30 Noroeste 0 -- -- 71
2017-09-12 01:00:00 23.5 21 Oeste 39 Noroeste 0 -- -- 62
2017-09-12 00:00:00 23.9 28 Oeste 39 Noroeste 0 -- -- 54
2017-09-11 23:00:00 23.9 25 Noroeste 38 Noroeste 0 -- -- 55
2017-09-11 22:00:00 24.2 23 Oeste 35 Noroeste 0 -- -- 48
2017-09-11 21:00:00 23.9 13 Oeste 21 Noroeste 0 -- -- 52
2017-09-11 20:00:00 24.6 11 Oeste 23 Noroeste 0 -- -- 60
2017-09-11 19:00:00 25.1 14 Oeste 27 Noroeste 0 -- -- 49
2017-09-11 18:00:00 25.4 12 Oeste 23 Noroeste 0 -- -- 63
2017-09-11 17:00:00 26.7 12 Oeste 18 Sudoeste 0 -- -- 60
2017-09-11 16:00:00 27.9 7 Oeste 14 Oeste 0 -- -- 59
2017-09-11 15:00:00 27.8 5 Oeste 18 Oeste 0 -- -- 52
2017-09-11 14:00:00 27.6 13 Oeste 26 Oeste 0 -- -- 54
2017-09-11 13:00:00 26.5 21 Oeste 31 Noroeste 0 -- -- 57
2017-09-11 12:00:00 25.5 21 Oeste 27 Oeste 0 -- -- 60
2017-09-11 11:00:00 25.1 14 Oeste 24 Noroeste 0 -- -- 54
2017-09-11 10:00:00 22.9 14 Oeste 25 Noroeste 0 -- -- 66
2017-09-11 09:00:00 21.5 17 Noroeste 26 Noroeste 0 -- -- 80
2017-09-11 08:00:00 20.8 16 Noroeste 22 Noroeste 0 -- -- 81
2017-09-11 07:00:00 20.7 10 Noroeste 18 Noroeste 0 -- -- 80
2017-09-11 06:00:00 20.6 11 Noroeste 18 Norte 0 -- -- 79
2017-09-11 05:00:00 20.8 8 Noroeste 10 Norte 0 -- -- 78
2017-09-11 04:00:00 21.1 4 Noroeste 10 Norte 0 -- -- 76
2017-09-11 03:00:00 20.5 6 Norte 10 Norte 0 -- -- 75
2017-09-11 02:00:00 21.2 4 Noroeste 9 Norte 0 -- -- 74
2017-09-11 01:00:00 21.5 4 Noroeste 9 Norte 0 -- -- 72
2017-09-11 00:00:00 21.5 4 Noroeste 8 Noroeste 0 -- -- 68
2017-09-10 23:00:00 21.5 5 Norte 14 Noroeste 0 -- -- 68
2017-09-10 22:00:00 22.4 4 Noroeste 11 Oeste 0 -- -- 65
2017-09-10 21:00:00 22.9 6 Oeste 13 Oeste 0 -- -- 64
2017-09-10 20:00:00 23.3 4 Sur 10 Sur 0 -- -- 61
2017-09-10 19:00:00 23.7 4 Sur 9 Sudeste 0 -- -- 61
2017-09-10 18:00:00 24.3 5 Sudeste 10 Sudoeste 0 -- -- 59
2017-09-10 17:00:00 25.7 5 Oeste 15 Oeste 0 -- -- 57
2017-09-10 16:00:00 26.5 7 Oeste 17 Oeste 0 -- -- 56
2017-09-10 15:00:00 25.8 7 Sur 18 Sur 0 -- -- 55
2017-09-10 14:00:00 25.8 9 Sur 24 Sudeste 0 -- -- 52
2017-09-10 13:00:00 27 5 Este 30 Este 0 -- -- 45
2017-09-10 12:00:00 25.3 24 Este 33 Este 0 -- -- 49
2017-09-10 11:00:00 26.4 17 Este 26 Este 0 -- -- 37
2017-09-10 10:00:00 26.2 3 Sur 24 Norte 0 -- -- 34
2017-09-10 09:00:00 24.6 10 Norte 27 Nordeste 0 -- -- 29
2017-09-10 08:00:00 23.7 12 Nordeste 23 Norte 0 -- -- 31
2017-09-10 07:00:00 23.6 14 Norte 26 Norte 0 -- -- 42
2017-09-10 06:00:00 22.5 10 Norte 26 Oeste 0 -- -- 73
2017-09-10 05:00:00 23.1 14 Oeste 36 Sudoeste 0 -- -- 80
2017-09-10 04:00:00 23 23 Oeste 41 Oeste 0 -- -- 81
2017-09-10 03:00:00 23.2 14 Oeste 38 Oeste 0 -- -- 81
2017-09-10 02:00:00 23.6 20 Oeste 35 Noroeste 0 -- -- 80
2017-09-10 01:00:00 23.8 16 Oeste 42 Oeste 0 -- -- 78
2017-09-10 00:00:00 24.1 16 Oeste 52 Oeste 0 -- -- 76
2017-09-09 23:00:00 24.2 29 Oeste 56 Oeste 0 -- -- 77
2017-09-09 22:00:00 24.4 32 Oeste 64 Oeste 0 -- -- 74
2017-09-09 21:00:00 24.3 30 Oeste 63 Sudoeste 0 -- -- 76
2017-09-09 20:00:00 24.4 35 Oeste 62 Oeste 0 -- -- 74
2017-09-09 19:00:00 24.9 39 Oeste 63 Oeste 0 -- -- 73
2017-09-09 18:00:00 24.6 33 Oeste 64 Oeste 0 -- -- 73
2017-09-09 17:00:00 24.4 36 Oeste 58 Sudoeste 0 -- -- 72
2017-09-09 16:00:00 24.7 30 Oeste 53 Oeste 0 -- -- 71
2017-09-09 15:00:00 25.3 30 Oeste 48 Oeste 0 -- -- 73
2017-09-09 14:00:00 25.7 19 Oeste 40 Oeste 0 -- -- 77
2017-09-09 13:00:00 25.5 18 Oeste 32 Sudoeste 0 -- -- 79
2017-09-09 12:00:00 25.6 8 Oeste 26 Oeste 0 -- -- 79
2017-09-09 11:00:00 25.6 14 Oeste 30 Sudoeste 0 -- -- 82
2017-09-09 10:00:00 24.4 16 Oeste 30 Oeste 0 -- -- 83
2017-09-09 09:00:00 24.1 15 Oeste 33 Oeste 0 -- -- 84
2017-09-09 08:00:00 23.5 17 Oeste 32 Oeste 0 -- -- 84
2017-09-09 07:00:00 23.6 16 Oeste 30 Sudoeste 0 -- -- 85
2017-09-09 06:00:00 23.6 17 Oeste 31 Oeste 0 -- -- 85
2017-09-09 05:00:00 23.9 15 Oeste 31 Oeste 0 -- -- 85
2017-09-09 04:00:00 24 24 Oeste 29 Oeste 0 -- -- 85
2017-09-09 03:00:00 24.1 19 Oeste 32 Oeste 0 -- -- 84
2017-09-09 02:00:00 24.4 16 Oeste 29 Oeste 0 -- -- 84
2017-09-09 01:00:00 24.5 17 Oeste 27 Sudoeste 0 -- -- 84
2017-09-09 00:00:00 24.7 12 Oeste 23 Sudoeste 0 -- -- 83
2017-09-08 23:00:00 24.9 10 Oeste 19 Sudoeste 0 -- -- 82
2017-09-08 22:00:00 25.2 6 Oeste 15 Sudoeste 0 -- -- 81
2017-09-08 21:00:00 25.4 6 Oeste 12 Sudoeste 0 -- -- 79
2017-09-08 20:00:00 25.8 3 Oeste 9 Oeste 0 -- -- 78
2017-09-08 19:00:00 25.9 4 Sudoeste 7 Sur 0 -- -- 78
2017-09-08 18:00:00 26.2 5 Sudeste 9 Sudeste 0 -- -- 76
2017-09-08 17:00:00 27.1 5 Sudeste 10 Este 0 -- -- 72
2017-09-08 16:00:00 28 6 Este 14 Este 0 -- -- 71
2017-09-08 15:00:00 27.8 10 Este 19 Este 0 -- -- 72
2017-09-08 14:00:00 27.4 15 Este 23 Este 0 -- -- 73
2017-09-08 13:00:00 27.2 15 Este 24 Este 0 -- -- 75
2017-09-08 12:00:00 26.4 20 Este 24 Este 0 -- -- 77
2017-09-08 11:00:00 26.3 15 Este 21 Este 0 -- -- 78
2017-09-08 10:00:00 25.7 6 Este 12 Este 0 -- -- 81
2017-09-08 09:00:00 24.1 4 Norte 14 Nordeste 0 -- -- 83
2017-09-08 08:00:00 23.6 8 Nordeste 11 Nordeste 0 -- -- 84
2017-09-08 07:00:00 23.6 8 Nordeste 13 Nordeste 0 -- -- 83
2017-09-08 06:00:00 23.8 7 Nordeste 12 Nordeste 0 -- -- 82
2017-09-08 05:00:00 23.9 6 Nordeste 9 Este 0 -- -- 81
2017-09-08 04:00:00 23.8 4 Norte 8 Norte 0 -- -- 79
2017-09-08 03:00:00 23.8 5 Norte 9 Este 0 -- -- 78
2017-09-08 02:00:00 24.1 5 Norte 8 Norte 0 -- -- 75
2017-09-08 01:00:00 24.4 3 Sudeste 9 Nordeste 0 -- -- 77
2017-09-08 00:00:00 24.5 5 Este 14 Nordeste 0 -- -- 79
2017-09-07 23:00:00 24.8 12 Nordeste 18 Este 0 -- -- 79
2017-09-07 22:00:00 24.8 12 Este 18 Este 0 -- -- 80
2017-09-07 21:00:00 25 13 Este 18 Este 0 -- -- 80
2017-09-07 20:00:00 25.6 9 Este 17 Sudeste 0 -- -- 79
2017-09-07 19:00:00 26 8 Este 19 Sudeste 0 -- -- 78
2017-09-07 18:00:00 25.9 12 Este 25 Este 0 -- -- 79
2017-09-07 17:00:00 26.1 18 Este 26 Este 0 -- -- 77
2017-09-07 16:00:00 26.1 20 Este 27 Este 0 -- -- 76
2017-09-07 15:00:00 26.3 22 Este 36 Este 0 -- -- 73
2017-09-07 14:00:00 26.8 28 Este 36 Este 0 -- -- 71
2017-09-07 13:00:00 27.2 25 Este 45 Este 0 -- -- 67
2017-09-07 12:00:00 26.7 29 Este 41 Sudeste 0 -- -- 68
2017-09-07 11:00:00 26.3 23 Este 42 Nordeste 0 -- -- 71
2017-09-07 10:00:00 25.4 28 Nordeste 41 Este 0 -- -- 73
2017-09-07 09:00:00 24.6 10 Nordeste 25 Nordeste 0 -- -- 75
2017-09-07 08:00:00 23.8 4 Norte 17 Nordeste 0 -- -- 76
2017-09-07 07:00:00 23.8 5 Norte 13 Nordeste 0 -- -- 74
2017-09-07 06:00:00 23.6 3 Noroeste 9 Norte 0 -- -- 76
2017-09-07 05:00:00 24.1 4 Noroeste 18 Norte 0 -- -- 78
2017-09-07 04:00:00 24.4 3 Noroeste 14 Noroeste 0 -- -- 79
2017-09-07 03:00:00 24.5 5 Oeste 15 Noroeste 0 -- -- 77
2017-09-07 02:00:00 24.7 7 Oeste 14 Sudeste 0 -- -- 76
2017-09-07 01:00:00 25 5 Norte 17 Este 0 -- -- 74
2017-09-07 00:00:00 25.1 10 Este 24 Este 0 -- -- 71
2017-09-06 23:00:00 25.4 5 Sudeste 14 Este 0 -- -- 71
2017-09-06 22:00:00 25.6 5 Sudoeste 15 Noroeste 0 -- -- 67
2017-09-06 21:00:00 25.7 6 Noroeste 20 Este 0 -- -- 63
2017-09-06 20:00:00 26.2 13 Nordeste 36 Este 0 -- -- 68
2017-09-06 19:00:00 26.3 23 Este 44 Este 0 -- -- 71
2017-09-06 18:00:00 25.9 27 Este 45 Este 0 -- -- 77
2017-09-06 17:00:00 26 22 Este 46 Este 0 -- -- 77
2017-09-06 16:00:00 25.9 39 Este 50 Este 0 -- -- 79
2017-09-06 15:00:00 26 41 Este 57 Este 0 -- -- 78
2017-09-06 14:00:00 26.2 36 Este 43 Este 0 -- -- 78
2017-09-06 13:00:00 26.3 32 Este 40 Este 0 -- -- 75
2017-09-06 12:00:00 26.7 31 Este 39 Este 0 -- -- 70
2017-09-06 11:00:00 28 12 Este 17 Este 0 -- -- 68
2017-09-06 10:00:00 27.6 7 Este 12 Este 0 -- -- 55
2017-09-06 09:00:00 26.4 6 Este 9 Este 0 -- -- 53
2017-09-06 08:00:00 24.8 0 Calma 10 Nordeste 0 -- -- 46
2017-09-06 07:00:00 25.6 9 Norte 12 Nordeste 0 -- -- 40
2017-09-06 06:00:00 25.2 9 Norte 13 Norte 0 -- -- 42
2017-09-06 05:00:00 25 3 Norte 12 Norte 0 -- -- 47
2017-09-06 04:00:00 25 9 Norte 15 Norte 0 -- -- 55
2017-09-06 03:00:00 24.8 9 Norte 19 Nordeste 0 -- -- 62
2017-09-06 02:00:00 24.3 6 Noroeste 13 Nordeste 0 -- -- 74
2017-09-06 01:00:00 24.4 2 Norte 18 Nordeste 0 -- -- 78
2017-09-06 00:00:00 24.7 4 Nordeste 17 Este 0 -- -- 79
2017-09-05 23:00:00 24.8 3 Este 19 Este 0 -- -- 80
2017-09-05 22:00:00 25.3 7 Este 22 Este 0 -- -- 79
2017-09-05 21:00:00 25.6 10 Este 22 Este 0 -- -- 76
2017-09-05 20:00:00 25.9 21 Nordeste 39 Este 0 -- -- 73
2017-09-05 19:00:00 26.2 24 Este 50 Nordeste 0 -- -- 71
2017-09-05 18:00:00 26.6 35 Este 57 Este 0 -- -- 70
2017-09-05 17:00:00 27.2 35 Este 55 Nordeste 0 -- -- 65
2017-09-05 16:00:00 27.9 35 Nordeste 50 Este 0 -- -- 61
2017-09-05 15:00:00 27.9 30 Este 58 Este 0 -- -- 58
2017-09-05 14:00:00 28.2 30 Este 51 Este 0 -- -- 58
2017-09-05 13:00:00 28.2 30 Este 57 Este 0 -- -- 60
2017-09-05 12:00:00 28.3 20 Este 42 Nordeste 0 -- -- 62
2017-09-05 11:00:00 27.4 15 Nordeste 35 Nordeste 0 -- -- 66
2017-09-05 10:00:00 26.5 18 Nordeste 37 Nordeste 0 -- -- 71
2017-09-05 09:00:00 25.1 14 Nordeste 39 Norte 0 -- -- 78
2017-09-05 08:00:00 24.5 17 Nordeste 37 Nordeste 0 -- -- 80
2017-09-05 07:00:00 24.8 17 Nordeste 37 Este 0 -- -- 81
2017-09-05 06:00:00 24.9 27 Nordeste 47 Nordeste 0 -- -- 81
2017-09-05 05:00:00 24.9 23 Nordeste 44 Nordeste 0 -- -- 80
2017-09-05 04:00:00 25.1 19 Nordeste 44 Nordeste 0 -- -- 80
2017-09-05 03:00:00 25.2 25 Nordeste 56 Nordeste 0 -- -- 81
2017-09-05 02:00:00 25.2 40 Nordeste 66 Este 0 -- -- 81
2017-09-05 01:00:00 25.4 44 Nordeste 66 Nordeste 0 -- -- 79
2017-09-05 00:00:00 26.1 41 Nordeste 62 Nordeste 0 -- -- 73
2017-09-04 23:00:00 25.3 4 Noroeste 18 Oeste 0 -- -- 77
2017-09-04 22:00:00 25.6 10 Oeste 17 Noroeste 0 -- -- 78
2017-09-04 21:00:00 25.8 10 Oeste 19 Noroeste 0 -- -- 76
2017-09-04 20:00:00 26.5 11 Oeste 15 Oeste 0 -- -- 74
2017-09-04 19:00:00 26.7 8 Oeste 18 Oeste 0 -- -- 72
2017-09-04 18:00:00 27.4 8 Oeste 19 Oeste 0 -- -- 73
2017-09-04 17:00:00 28.4 14 Oeste 22 Oeste 0 -- -- 70
2017-09-04 16:00:00 29.3 10 Oeste 19 Oeste 0 -- -- 69
2017-09-04 15:00:00 28.9 7 Oeste 15 Oeste 0 -- -- 70
2017-09-04 14:00:00 28.5 5 Oeste 16 Oeste 0 -- -- 70
2017-09-04 13:00:00 27.5 5 Oeste 17 Sudoeste 0 -- -- 74
2017-09-04 12:00:00 27.5 12 Oeste 21 Oeste 0 -- -- 74
2017-09-04 11:00:00 26.3 15 Oeste 27 Oeste 0 -- -- 80
2017-09-04 10:00:00 25.2 23 Oeste 28 Oeste 0 -- -- 84
2017-09-04 09:00:00 24.4 15 Oeste 26 Oeste 0 -- -- 87
2017-09-04 08:00:00 23.8 19 Oeste 28 Oeste 0 -- -- 87
2017-09-04 07:00:00 24 19 Oeste 25 Noroeste 0 -- -- 87
2017-09-04 06:00:00 24.1 17 Oeste 28 Oeste 0 -- -- 86
2017-09-04 05:00:00 24.3 18 Oeste 25 Oeste 0 -- -- 86
2017-09-04 04:00:00 24.3 17 Oeste 29 Oeste 0 -- -- 84
2017-09-04 03:00:00 24.4 24 Oeste 32 Oeste 0 -- -- 82
2017-09-04 02:00:00 24.2 22 Oeste 31 Oeste 0 -- -- 82
2017-09-04 01:00:00 24.7 20 Oeste 30 Oeste 0 -- -- 82
2017-09-04 00:00:00 24.8 13 Oeste 24 Oeste 0 -- -- 80
2017-09-03 23:00:00 24.9 5 Oeste 14 Sudoeste 0 -- -- 78
2017-09-03 22:00:00 25.2 4 Oeste 14 Oeste 0 -- -- 76
2017-09-03 21:00:00 25.3 6 Oeste 13 Sudoeste 0 -- -- 73
2017-09-03 20:00:00 25.8 6 Oeste 11 Sudoeste 0 -- -- 71
2017-09-03 19:00:00 26.2 3 Oeste 8 Sur 0 -- -- 71
2017-09-03 18:00:00 26.4 4 Sudoeste 9 Sudeste 0 -- -- 71
2017-09-03 17:00:00 26.8 6 Sudeste 18 Este 0 -- -- 70
2017-09-03 16:00:00 26.6 12 Este 30 Este 0 -- -- 72
2017-09-03 15:00:00 25.7 26 Este 35 Este 0 -- -- 73
2017-09-03 14:00:00 25.6 29 Este 37 Este 0 -- -- 73
2017-09-03 13:00:00 25.9 29 Este 37 Este 0 -- -- 71
2017-09-03 12:00:00 25.9 30 Este 35 Este 0 -- -- 72
2017-09-03 11:00:00 26.5 24 Este 30 Este 0 -- -- 68
2017-09-03 10:00:00 26.2 6 Oeste 17 Nordeste 0 -- -- 74
2017-09-03 09:00:00 24.6 11 Este 21 Nordeste 0 -- -- 78
2017-09-03 08:00:00 23.1 0 Calma 11 Norte 0 -- -- 81
2017-09-03 07:00:00 23.2 2 Noroeste 9 Sudeste 0 -- -- 81
2017-09-03 06:00:00 23.5 5 Nordeste 14 Nordeste 0 -- -- 81
2017-09-03 05:00:00 23.6 4 Norte 14 Noroeste 0 -- -- 81
2017-09-03 04:00:00 23.7 4 Norte 28 Nordeste 0 -- -- 80
2017-09-03 03:00:00 23.8 14 Nordeste 32 Este 0 -- -- 80
2017-09-03 02:00:00 23.8 9 Nordeste 18 Este 0 -- -- 80
2017-09-03 01:00:00 24 7 Norte 23 Este 0 -- -- 80
2017-09-03 00:00:00 24.1 7 Nordeste 21 Este 0 -- -- 79
2017-09-02 23:00:00 24.2 3 Norte 13 Norte 0 -- -- 79
2017-09-02 22:00:00 24.4 3 Norte 28 Este 0 -- -- 79
2017-09-02 21:00:00 24.5 19 Nordeste 33 Este 0 -- -- 79
2017-09-02 20:00:00 24.9 18 Este 39 Este 0 -- -- 77
2017-09-02 19:00:00 25.2 22 Este 44 Este 0 -- -- 76
2017-09-02 18:00:00 25.3 27 Este 53 Este 0 -- -- 76
2017-09-02 17:00:00 25.6 35 Este 54 Este 0 -- -- 74
2017-09-02 16:00:00 26.6 27 Este 52 Este 0 -- -- 71
2017-09-02 15:00:00 26.5 33 Este 59 Este 0 -- -- 70
2017-09-02 14:00:00 26.7 34 Este 60 Este 0 -- -- 70
2017-09-02 13:00:00 26.5 34 Este 54 Este 0 -- -- 72
2017-09-02 12:00:00 26.6 30 Este 47 Este 0 -- -- 70
2017-09-02 11:00:00 26.7 25 Este 46 Este 0 -- -- 71
2017-09-02 10:00:00 25.8 28 Nordeste 41 Nordeste 0 -- -- 75
2017-09-02 09:00:00 24.9 16 Nordeste 31 Nordeste 0 -- -- 78
2017-09-02 08:00:00 24.4 13 Nordeste 29 Nordeste 0 -- -- 79
2017-09-02 07:00:00 24.4 15 Nordeste 33 Nordeste 0 -- -- 78
2017-09-02 06:00:00 24.4 16 Nordeste 36 Nordeste 0 -- -- 78
2017-09-02 05:00:00 24.5 19 Nordeste 31 Nordeste 0 -- -- 78
2017-09-02 04:00:00 24.5 18 Nordeste 30 Nordeste 0 -- -- 78
2017-09-02 03:00:00 24.6 12 Norte 24 Nordeste 0 -- -- 78
2017-09-02 02:00:00 24.7 10 Norte 24 Nordeste 0 -- -- 79
2017-09-02 01:00:00 24.9 13 Nordeste 28 Nordeste 0 -- -- 79
2017-09-02 00:00:00 25.1 13 Nordeste 28 Nordeste 0 -- -- 79
2017-09-01 23:00:00 25.4 13 Nordeste 44 Este 0 -- -- 79
2017-09-01 22:00:00 25.5 21 Nordeste 47 Nordeste 0 -- -- 79
2017-09-01 21:00:00 25.7 28 Nordeste 54 Nordeste 0 -- -- 78
2017-09-01 20:00:00 26 31 Nordeste 49 Nordeste 0 -- -- 75
2017-09-01 19:00:00 26.5 30 Nordeste 53 Nordeste 0 -- -- 73
2017-09-01 18:00:00 26.7 30 Nordeste 54 Nordeste 0 -- -- 72
2017-09-01 17:00:00 27.3 33 Este 58 Este 0 -- -- 66
2017-09-01 16:00:00 28.2 31 Este 50 Este 0 -- -- 63
2017-09-01 15:00:00 29 21 Este 53 Nordeste 0 -- -- 58
2017-09-01 14:00:00 29.1 21 Nordeste 54 Este 0 -- -- 58
2017-09-01 13:00:00 28.8 20 Nordeste 47 Nordeste 0 -- -- 58
2017-09-01 12:00:00 28.2 19 Nordeste 47 Nordeste 0 -- -- 60
2017-09-01 11:00:00 27.3 18 Nordeste 40 Este 0 -- -- 62
2017-09-01 10:00:00 26.8 4 Norte 20 Nordeste 0 -- -- 60
2017-09-01 09:00:00 25.3 11 Norte 21 Nordeste 0 -- -- 64
2017-09-01 08:00:00 24.5 9 Norte 23 Nordeste 0 -- -- 66
2017-09-01 07:00:00 24.2 8 Nordeste 26 Norte 0 -- -- 68
2017-09-01 06:00:00 24.2 12 Norte 32 Norte 0 -- -- 69
2017-09-01 05:00:00 24.1 9 Noroeste 29 Noroeste 0 -- -- 69
2017-09-01 04:00:00 24.6 6 Norte 27 Nordeste 0 -- -- 67
2017-09-01 03:00:00 25.1 12 Norte 23 Norte 0 -- -- 63
2017-09-01 02:00:00 24.6 5 Noroeste 24 Norte 0 -- -- 68
2017-09-01 01:00:00 24.8 8 Nordeste 25 Este 0 -- -- 68
2017-09-01 00:00:00 25.1 8 Norte 22 Nordeste 0 -- -- 70
2017-08-31 23:00:00 25.3 6 Norte 27 Nordeste 0 -- -- 70
2017-08-31 22:00:00 25.5 24 Nordeste 49 Nordeste 0 -- -- 69
2017-08-31 21:00:00 25.7 36 Nordeste 54 Este 0 -- -- 69
2017-08-31 20:00:00 26.7 34 Nordeste 54 Nordeste 0 -- -- 57
2017-08-31 19:00:00 27.5 30 Nordeste 46 Este 0 -- -- 50
2017-08-31 18:00:00 27.6 23 Nordeste 42 Nordeste 0 -- -- 53
2017-08-31 17:00:00 26.8 24 Este 54 Este 0 -- -- 65
2017-08-31 16:00:00 26.5 35 Este 49 Este 0 -- -- 71
2017-08-31 15:00:00 26.8 32 Este 42 Este 0 -- -- 65
2017-08-31 14:00:00 27.1 28 Este 38 Este 0 -- -- 62
2017-08-31 13:00:00 26.1 24 Este 45 Este 0 -- -- 69
2017-08-31 12:00:00 25.2 19 Este 24 Este 0 -- -- 72
2017-08-31 11:00:00 25 9 Este 13 Este 0 -- -- 74
2017-08-31 10:00:00 24.1 8 Este 11 Este 0 -- -- 73
2017-08-31 09:00:00 23.1 7 Noroeste 12 Norte 0 -- -- 70
2017-08-31 08:00:00 22.4 3 Noroeste 9 Oeste 0 -- -- 74
2017-08-31 07:00:00 23.1 3 Nordeste 10 Norte 0 -- -- 74
2017-08-31 06:00:00 23 5 Nordeste 12 Norte 0 -- -- 76
2017-08-31 05:00:00 22.7 10 Norte 22 Norte 0 -- -- 78
2017-08-31 04:00:00 22.2 9 Norte 15 Norte 0 -- -- 83
2017-08-31 03:00:00 22.1 4 Norte 15 Norte 0 -- -- 84
2017-08-31 02:00:00 22.3 10 Norte 18 Este 0 -- -- 84
2017-08-31 01:00:00 22.8 14 Este 31 Este 0 -- -- 83
2017-08-31 00:00:00 23 17 Este 24 Este 0 -- -- 80
2017-08-30 23:00:00 22.2 6 Nordeste 11 Este 0 -- -- 79
2017-08-30 22:00:00 21.9 0 Calma 19 Oeste 0 -- -- 81
2017-08-30 21:00:00 22.1 13 Oeste 27 Noroeste 0 -- -- 82
2017-08-30 20:00:00 22.7 14 Oeste 38 Noroeste 0 -- -- 82
2017-08-30 19:00:00 22 20 Oeste 40 Oeste 0 -- -- 85
2017-08-30 18:00:00 21.6 23 Oeste 43 Oeste 0.2 -- -- 86
2017-08-30 17:00:00 20.8 10 Oeste 23 Oeste 0.2 -- -- 86
2017-08-30 16:00:00 20.2 8 Este 23 Noroeste 0.2 -- -- 86
2017-08-30 15:00:00 19.7 13 Norte 28 Noroeste 2.6 -- -- 86
2017-08-30 14:00:00 20 4 Este 14 Este 2 -- -- 86
2017-08-30 13:00:00 19.8 3 Sudeste 25 Nordeste 1.6 -- -- 86
2017-08-30 12:00:00 19.9 17 Nordeste 35 Nordeste 5.8 -- -- 87
2017-08-30 11:00:00 19.6 12 Nordeste 28 Noroeste 1.8 -- -- 87
2017-08-30 10:00:00 19.9 3 Este 29 Norte 1.2 -- -- 88
2017-08-30 09:00:00 19.3 20 Noroeste 48 Norte 2.4 -- -- 88
2017-08-30 08:00:00 19.5 24 Noroeste 41 Noroeste 1.6 -- -- 88
2017-08-30 07:00:00 19.7 15 Noroeste 27 Oeste 2.8 -- -- 88
2017-08-30 06:00:00 20.2 13 Noroeste 19 Noroeste 1.4 -- -- 87
2017-08-30 05:00:00 20.1 10 Este 24 Norte 2.2 -- -- 87
2017-08-30 04:00:00 19.7 11 Norte 24 Noroeste 2.4 -- -- 86
2017-08-30 03:00:00 19.8 6 Noroeste 31 Noroeste 1.8 -- -- 86
2017-08-30 02:00:00 19.5 12 Noroeste 24 Noroeste 0 -- -- 86
2017-08-30 01:00:00 19.3 2 Oeste 19 Norte 0.8 -- -- 85
2017-08-30 00:00:00 18.7 14 Norte 21 Noroeste 2.6 -- -- 84
2017-08-29 23:00:00 18.7 10 Norte 26 Norte 1.2 -- -- 81
2017-08-29 22:00:00 18.9 6 Norte 25 Noroeste 3.8 -- -- 76
2017-08-29 21:00:00 20.1 9 Noroeste 40 Oeste 6.4 -- -- 73
2017-08-29 20:00:00 23.5 19 Oeste 26 Oeste 0.4 -- -- 72
2017-08-29 19:00:00 24.3 2 Sur 17 Oeste 0.2 -- -- 71
2017-08-29 18:00:00 25.1 12 Oeste 22 Oeste 0 -- -- 70
2017-08-29 17:00:00 25 12 Oeste 28 Oeste 0 -- -- 70
2017-08-29 16:00:00 26 22 Oeste 28 Oeste 0 -- -- 68
2017-08-29 15:00:00 26 18 Oeste 26 Oeste 0 -- -- 69
2017-08-29 14:00:00 24.6 9 Oeste 21 Noroeste 0 -- -- 79
2017-08-29 13:00:00 22.8 12 Oeste 41 Oeste 0.2 -- -- 80
2017-08-29 12:00:00 23.8 21 Oeste 41 Oeste 0.6 -- -- 84
2017-08-29 11:00:00 24.1 10 Sudeste 20 Sur 0.6 -- -- 85
2017-08-29 10:00:00 24.3 6 Sudeste 18 Este 1 -- -- 85
2017-08-29 09:00:00 24.1 4 Sur 10 Noroeste 0.2 -- -- 83
2017-08-29 08:00:00 24 2 Oeste 11 Noroeste 0.2 -- -- 81
2017-08-29 07:00:00 24.5 2 Sudoeste 14 Oeste 0 -- -- 80
2017-08-29 06:00:00 24.3 10 Noroeste 23 Noroeste 0 -- -- 78
2017-08-29 05:00:00 24.5 6 Oeste 27 Noroeste 0 -- -- 74
2017-08-29 04:00:00 24 23 Noroeste 51 Noroeste 0 -- -- 74
2017-08-29 03:00:00 25.5 16 Oeste 25 Oeste 0 -- -- 75
2017-08-29 02:00:00 26 3 Sudoeste 24 Oeste 0 -- -- 72
2017-08-29 01:00:00 25.6 6 Noroeste 16 Oeste 0 -- -- 63
2017-08-29 00:00:00 26.2 4 Este 12 Norte 0 -- -- 62
2017-08-28 23:00:00 26.8 8 Este 14 Noroeste 0 -- -- 63
2017-08-28 22:00:00 27 9 Norte 17 Norte 0 -- -- 51
2017-08-28 21:00:00 26.3 12 Norte 19 Norte 0 -- -- 60
2017-08-28 20:00:00 26.3 9 Este 14 Este 0 -- -- 72
2017-08-28 19:00:00 26.8 3 Sudeste 8 Este 0 -- -- 68
2017-08-28 18:00:00 27.1 5 Sudeste 10 Nordeste 0 -- -- 64
2017-08-28 17:00:00 26.9 5 Nordeste 23 Sudeste 0 -- -- 69
2017-08-28 16:00:00 28.6 4 Sudeste 31 Norte 0 -- -- 64
2017-08-28 15:00:00 26.6 17 Noroeste 27 Noroeste 0 -- -- 62
2017-08-28 14:00:00 26.6 14 Sudeste 29 Norte 0 -- -- 68
2017-08-28 13:00:00 25.8 27 Norte 44 Noroeste 0 -- -- 63
2017-08-28 12:00:00 25.7 17 Oeste 26 Oeste 0 -- -- 81
2017-08-28 11:00:00 26.1 3 Sudeste 21 Sudoeste 0.2 -- -- 77
2017-08-28 10:00:00 26.5 8 Oeste 35 Oeste 0 -- -- 72
2017-08-28 09:00:00 27.1 8 Noroeste 32 Nordeste 0 -- -- 63
2017-08-28 08:00:00 26.9 18 Nordeste 39 Nordeste 0 -- -- 65
2017-08-28 07:00:00 26.5 13 Este 24 Este 0 -- -- 66
2017-08-28 06:00:00 26.5 5 Oeste 36 Nordeste 0 -- -- 67
2017-08-28 05:00:00 26.5 20 Nordeste 34 Nordeste 0 -- -- 68
2017-08-28 04:00:00 26 3 Norte 17 Noroeste 0 -- -- 76
2017-08-28 03:00:00 25.9 12 Noroeste 27 Noroeste 0 -- -- 80
2017-08-28 02:00:00 25.8 11 Nordeste 28 Este 0 -- -- 82
2017-08-28 01:00:00 25.9 15 Nordeste 29 Este 0 -- -- 83
2017-08-28 00:00:00 26 15 Este 42 Nordeste 0 -- -- 84
2017-08-27 23:00:00 25.9 35 Nordeste 65 Este 0 -- -- 84
2017-08-27 22:00:00 26.3 33 Este 67 Este 0 -- -- 82
2017-08-27 21:00:00 26.9 40 Este 73 Este 0 -- -- 76
2017-08-27 20:00:00 27.3 41 Este 63 Nordeste 0 -- -- 73
2017-08-27 19:00:00 27.8 30 Este 43 Nordeste 0 -- -- 70
2017-08-27 18:00:00 28.7 24 Este 47 Este 0 -- -- 68
2017-08-27 17:00:00 30 19 Este 37 Este 0 -- -- 61
2017-08-27 16:00:00 29.3 25 Este 46 Este 0 -- -- 63
2017-08-27 15:00:00 29.2 28 Este 46 Este 0 -- -- 64
2017-08-27 14:00:00 29.6 23 Nordeste 55 Nordeste 0 -- -- 64
2017-08-27 13:00:00 28.4 34 Nordeste 56 Nordeste 0 -- -- 69
2017-08-27 12:00:00 28.2 25 Este 56 Nordeste 0 -- -- 71
2017-08-27 11:00:00 27.7 35 Este 51 Nordeste 0 -- -- 73
2017-08-27 10:00:00 26.6 36 Este 55 Nordeste 0 -- -- 78
2017-08-27 09:00:00 26 34 Este 57 Este 0 -- -- 83
2017-08-27 08:00:00 25.6 28 Este 53 Este 0 -- -- 85
2017-08-27 07:00:00 26.2 32 Este 48 Este 0 -- -- 80
2017-08-27 06:00:00 26.5 4 Sudeste 17 Este 0 -- -- 79
2017-08-27 05:00:00 26.6 11 Nordeste 27 Noroeste 0 -- -- 76
2017-08-27 04:00:00 25.9 8 Oeste 37 Este 0 -- -- 81
2017-08-27 03:00:00 26 19 Nordeste 36 Nordeste 0 -- -- 82
2017-08-27 02:00:00 26.8 5 Este 21 Norte 0 -- -- 79
2017-08-27 01:00:00 26.8 4 Norte 12 Norte 0 -- -- 77
2017-08-27 00:00:00 27.5 2 Oeste 17 Oeste 0 -- -- 74
2017-08-26 23:00:00 27.5 6 Este 19 Oeste 0 -- -- 73
2017-08-26 22:00:00 28.6 11 Oeste 61 Nordeste 0 -- -- 63
2017-08-26 21:00:00 28.9 46 Nordeste 73 Nordeste 0 -- -- 58
2017-08-26 20:00:00 29.5 39 Nordeste 60 Nordeste 0 -- -- 47
2017-08-26 19:00:00 30.1 27 Nordeste 45 Nordeste 0 -- -- 49
2017-08-26 18:00:00 28.9 17 Este 42 Nordeste 0 -- -- 67
2017-08-26 17:00:00 28.9 31 Este 50 Nordeste 0 -- -- 64
2017-08-26 16:00:00 28.6 25 Este 40 Este 0 -- -- 68
2017-08-26 15:00:00 27.8 31 Este 49 Este 0 -- -- 73
2017-08-26 14:00:00 28.7 26 Este 47 Este 0 -- -- 70
2017-08-26 13:00:00 28.1 31 Este 49 Este 0 -- -- 73
2017-08-26 12:00:00 27.6 30 Este 48 Este 0 -- -- 74
2017-08-26 11:00:00 27.3 28 Este 51 Este 0 -- -- 75
2017-08-26 10:00:00 27.1 24 Este 38 Este 0 -- -- 74
2017-08-26 09:00:00 26.6 4 Sur 19 Oeste 0 -- -- 75
2017-08-26 08:00:00 25.3 8 Noroeste 36 Este 0 -- -- 77
2017-08-26 07:00:00 25 8 Oeste 32 Este 0 -- -- 80
2017-08-26 06:00:00 24.9 6 Norte 17 Nordeste 0 -- -- 81
2017-08-26 05:00:00 25 6 Norte 26 Nordeste 0 -- -- 82
2017-08-26 04:00:00 25.2 12 Este 27 Este 0 -- -- 84
2017-08-26 03:00:00 25.4 5 Este 31 Este 0 -- -- 85
2017-08-26 02:00:00 25.6 10 Este 17 Este 0 -- -- 83
2017-08-26 01:00:00 25.9 3 Este 14 Este 0 -- -- 83
2017-08-26 00:00:00 26.3 11 Oeste 22 Oeste 0 -- -- 80
2017-08-25 23:00:00 26.2 3 Oeste 11 Este 0 -- -- 72
2017-08-25 22:00:00 26.4 11 Este 24 Este 0 -- -- 76
2017-08-25 21:00:00 27.1 6 Norte 27 Este 0 -- -- 71
2017-08-25 20:00:00 26.9 20 Este 37 Este 0 -- -- 73
2017-08-25 19:00:00 27.1 24 Este 43 Este 0 -- -- 75
2017-08-25 18:00:00 27.3 29 Este 45 Este 0 -- -- 75
2017-08-25 17:00:00 27.1 35 Este 47 Este 0 -- -- 74
2017-08-25 16:00:00 27 34 Este 44 Este 0 -- -- 76
2017-08-25 15:00:00 26.6 37 Este 46 Este 0 -- -- 78
2017-08-25 14:00:00 26.5 35 Este 45 Este 0 -- -- 77
2017-08-25 13:00:00 26.4 35 Este 49 Este 0 -- -- 78
2017-08-25 12:00:00 26.7 28 Este 34 Este 0 -- -- 78
2017-08-25 11:00:00 27.1 9 Este 17 Este 0 -- -- 80
2017-08-25 10:00:00 25.1 15 Este 33 Este 0 -- -- 85
2017-08-25 09:00:00 24.9 27 Este 50 Este 0 -- -- 84
2017-08-25 08:00:00 25.1 30 Este 55 Este 0 -- -- 82
2017-08-25 07:00:00 25.3 27 Este 39 Este 0 -- -- 73
2017-08-25 06:00:00 24.9 5 Norte 17 Este 0 -- -- 75
2017-08-25 05:00:00 26 9 Este 39 Noroeste 0 -- -- 73
2017-08-25 04:00:00 24.4 24 Norte 34 Norte 0 -- -- 84
2017-08-25 03:00:00 24.8 13 Oeste 19 Oeste 0 -- -- 84
2017-08-25 02:00:00 24.9 8 Sur 14 Sur 0 -- -- 84
2017-08-25 01:00:00 25.1 3 Este 8 Este 0 -- -- 83
2017-08-25 00:00:00 25.1 2 Sudeste 8 Nordeste 0 -- -- 82
2017-08-24 23:00:00 25.2 4 Norte 10 Este 0 -- -- 82
2017-08-24 22:00:00 25.3 9 Este 29 Este 0 -- -- 83
2017-08-24 21:00:00 25.7 18 Este 31 Este 0 -- -- 82
2017-08-24 20:00:00 25.9 23 Este 36 Este 0 -- -- 81
2017-08-24 19:00:00 25.7 26 Este 38 Este 0 -- -- 81
2017-08-24 18:00:00 25.8 31 Este 39 Este 0 -- -- 80
2017-08-24 17:00:00 26.1 31 Este 42 Este 0 -- -- 79
2017-08-24 16:00:00 26.5 32 Este 40 Este 0 -- -- 78
2017-08-24 15:00:00 26.9 27 Este 44 Este 0 -- -- 77
2017-08-24 14:00:00 26.6 36 Este 46 Este 0 -- -- 76
2017-08-24 13:00:00 26.4 38 Este 50 Este 0 -- -- 77
2017-08-24 12:00:00 26.4 35 Este 43 Este 0 -- -- 75
2017-08-24 11:00:00 26.5 26 Este 32 Este 0 -- -- 78
2017-08-24 10:00:00 26.6 18 Este 25 Este 0 -- -- 77
2017-08-24 09:00:00 25.4 5 Este 21 Nordeste 0 -- -- 82
2017-08-24 08:00:00 24.3 13 Nordeste 21 Nordeste 0 -- -- 82
2017-08-24 07:00:00 24.1 7 Nordeste 14 Este 0 -- -- 80
2017-08-24 06:00:00 24.3 6 Este 12 Este 0 -- -- 76
2017-08-24 05:00:00 24.3 5 Este 8 Este 0 -- -- 74
2017-08-24 04:00:00 24.3 5 Norte 9 Noroeste 0 -- -- 73
2017-08-24 03:00:00 24.4 5 Norte 10 Noroeste 0 -- -- 69
2017-08-24 02:00:00 24.8 7 Noroeste 15 Nordeste 0 -- -- 68
2017-08-24 01:00:00 25.3 10 Este 16 Nordeste 0 -- -- 67
2017-08-24 00:00:00 25.3 5 Nordeste 11 Nordeste 0 -- -- 50
2017-08-23 23:00:00 25.4 6 Nordeste 15 Nordeste 0 -- -- 55
2017-08-23 22:00:00 25.3 6 Norte 22 Nordeste 0 -- -- 75
2017-08-23 21:00:00 25.8 11 Este 28 Este 0 -- -- 75
2017-08-23 20:00:00 26.4 21 Este 37 Este 0 -- -- 72
2017-08-23 19:00:00 26.8 24 Este 43 Este 0 -- -- 72
2017-08-23 18:00:00 26.7 29 Este 46 Este 0 -- -- 72
2017-08-23 17:00:00 26.4 37 Este 52 Este 0 -- -- 71
2017-08-23 16:00:00 26.5 35 Este 52 Este 0 -- -- 74
2017-08-23 15:00:00 26.2 40 Este 53 Este 0 -- -- 76
2017-08-23 14:00:00 26 39 Este 51 Este 0 -- -- 76
2017-08-23 13:00:00 26.2 35 Este 43 Este 0 -- -- 76
2017-08-23 12:00:00 26.2 33 Este 39 Este 0 -- -- 75
2017-08-23 11:00:00 26 28 Este 34 Este 0 -- -- 77
2017-08-23 10:00:00 25.1 23 Este 31 Este 0 -- -- 81
2017-08-23 09:00:00 25.1 14 Este 23 Este 0 -- -- 81
2017-08-23 08:00:00 24.3 18 Este 24 Nordeste 0 -- -- 81
2017-08-23 07:00:00 24 6 Nordeste 12 Nordeste 0 -- -- 77
2017-08-23 06:00:00 24.5 8 Nordeste 21 Nordeste 0 -- -- 77
2017-08-23 05:00:00 24.8 13 Este 17 Nordeste 0 -- -- 74
2017-08-23 04:00:00 24.7 3 Este 7 Norte 0 -- -- 68
2017-08-23 03:00:00 24.5 3 Nordeste 6 Norte 0 -- -- 66
2017-08-23 02:00:00 24.6 4 Noroeste 10 Norte 0 -- -- 64
2017-08-23 01:00:00 24.9 6 Norte 11 Nordeste 0 -- -- 66
2017-08-23 00:00:00 25.4 4 Nordeste 12 Norte 0 -- -- 67
2017-08-22 23:00:00 25.5 12 Este 19 Este 0 -- -- 70
2017-08-22 22:00:00 25.7 9 Este 25 Este 0 -- -- 72
2017-08-22 21:00:00 26.3 18 Este 30 Este 0 -- -- 69
2017-08-22 20:00:00 26.4 20 Este 33 Nordeste 0 -- -- 70
2017-08-22 19:00:00 26.7 24 Este 41 Sudeste 0 -- -- 67
2017-08-22 18:00:00 26.9 30 Este 44 Este 0 -- -- 68
2017-08-22 17:00:00 26.7 27 Este 45 Este 0 -- -- 70
2017-08-22 16:00:00 26.6 35 Este 49 Este 0 -- -- 70
2017-08-22 15:00:00 27 36 Este 47 Este 0 -- -- 66
2017-08-22 14:00:00 28.1 27 Este 41 Este 0 -- -- 61
2017-08-22 13:00:00 28.9 27 Este 41 Este 0 -- -- 49
2017-08-22 12:00:00 29.5 22 Este 40 Nordeste 0 -- -- 44
2017-08-22 11:00:00 29.3 18 Nordeste 31 Nordeste 0 -- -- 40
2017-08-22 10:00:00 28.6 8 Nordeste 30 Este 0 -- -- 47
2017-08-22 09:00:00 27.2 14 Nordeste 36 Nordeste 0 -- -- 46
2017-08-22 08:00:00 26.2 21 Nordeste 33 Nordeste 0 -- -- 46
2017-08-22 07:00:00 26 16 Nordeste 28 Nordeste 0 -- -- 48
2017-08-22 06:00:00 24.8 0 Calma 7 Norte 0 -- -- 53
2017-08-22 05:00:00 25 3 Nordeste 7 Norte 0 -- -- 63
2017-08-22 04:00:00 25 4 Norte 8 Norte 0 -- -- 69
2017-08-22 03:00:00 25.2 3 Noroeste 7 Oeste 0 -- -- 66
2017-08-22 02:00:00 25.8 2 Este 30 Norte 0 -- -- 64
2017-08-22 01:00:00 25.9 15 Norte 34 Norte 0 -- -- 66
2017-08-22 00:00:00 25.5 9 Norte 33 Nordeste 0 -- -- 72